sensor_id;sensor_type;location;lat;lon;timestamp;pressure;altitude;pressure_sealevel;temperature;humidity
23996;BME280;12207;50.076;8.848;2022-08-24T00:01:24;100209.44;;;20.51;66.74
23996;BME280;12207;50.076;8.848;2022-08-24T00:03:50;100211.03;;;20.38;67.63
23996;BME280;12207;50.076;8.848;2022-08-24T00:06:18;100204.06;;;20.34;67.72
23996;BME280;12207;50.076;8.848;2022-08-24T00:08:46;100204.75;;;20.19;68.41
23996;BME280;12207;50.076;8.848;2022-08-24T00:11:12;100211.56;;;20.13;69.07
23996;BME280;12207;50.076;8.848;2022-08-24T00:13:39;100211.53;;;20.10;69.83
23996;BME280;12207;50.076;8.848;2022-08-24T00:16:06;100211.53;;;20.10;69.59
23996;BME280;12207;50.076;8.848;2022-08-24T00:18:33;100220.91;;;20.01;69.87
23996;BME280;12207;50.076;8.848;2022-08-24T00:21:00;100215.66;;;19.95;69.91
23996;BME280;12207;50.076;8.848;2022-08-24T00:23:27;100212.97;;;19.88;70.81
23996;BME280;12207;50.076;8.848;2022-08-24T00:25:54;100215.50;;;19.83;70.70
23996;BME280;12207;50.076;8.848;2022-08-24T00:28:20;100215.38;;;19.74;71.43
23996;BME280;12207;50.076;8.848;2022-08-24T00:30:47;100217.91;;;19.71;71.53
23996;BME280;12207;50.076;8.848;2022-08-24T00:33:13;100220.47;;;19.68;71.46
23996;BME280;12207;50.076;8.848;2022-08-24T00:35:40;100218.72;;;19.67;71.43
23996;BME280;12207;50.076;8.848;2022-08-24T00:38:06;100220.41;;;19.65;71.47
23996;BME280;12207;50.076;8.848;2022-08-24T00:40:36;100219.53;;;19.64;71.37
23996;BME280;12207;50.076;8.848;2022-08-24T00:43:03;100221.13;;;19.56;72.14
23996;BME280;12207;50.076;8.848;2022-08-24T00:45:30;100215.94;;;19.54;71.87
23996;BME280;12207;50.076;8.848;2022-08-24T00:48:00;100223.59;;;19.48;71.87
23996;BME280;12207;50.076;8.848;2022-08-24T00:50:33;100212.25;;;19.40;72.68
23996;BME280;12207;50.076;8.848;2022-08-24T00:53:09;100215.63;;;19.34;72.79
23996;BME280;12207;50.076;8.848;2022-08-24T00:55:44;100221.59;;;19.30;73.11
23996;BME280;12207;50.076;8.848;2022-08-24T00:58:17;100217.97;;;19.21;73.81
23996;BME280;12207;50.076;8.848;2022-08-24T01:00:47;100214.44;;;19.16;74.00
23996;BME280;12207;50.076;8.848;2022-08-24T01:03:14;100215.28;;;19.15;73.84
23996;BME280;12207;50.076;8.848;2022-08-24T01:05:41;100215.06;;;19.02;74.35
23996;BME280;12207;50.076;8.848;2022-08-24T01:08:10;100211.56;;;19.00;74.10
23996;BME280;12207;50.076;8.848;2022-08-24T01:10:41;100211.56;;;18.99;74.85
23996;BME280;12207;50.076;8.848;2022-08-24T01:13:09;100208.22;;;19.04;74.99
23996;BME280;12207;50.076;8.848;2022-08-24T01:15:38;100209.03;;;19.03;75.29
23996;BME280;12207;50.076;8.848;2022-08-24T01:18:05;100214.25;;;19.05;74.80
23996;BME280;12207;50.076;8.848;2022-08-24T01:20:55;100217.66;;;19.01;74.79
23996;BME280;12207;50.076;8.848;2022-08-24T01:23:28;100219.16;;;18.89;74.99
23996;BME280;12207;50.076;8.848;2022-08-24T01:25:58;100217.41;;;18.88;75.29
23996;BME280;12207;50.076;8.848;2022-08-24T01:28:25;100222.41;;;18.79;75.67
23996;BME280;12207;50.076;8.848;2022-08-24T01:30:52;100215.50;;;18.78;75.96
23996;BME280;12207;50.076;8.848;2022-08-24T01:33:23;100225.84;;;18.78;76.07
23996;BME280;12207;50.076;8.848;2022-08-24T01:35:52;100227.47;;;18.73;76.58
23996;BME280;12207;50.076;8.848;2022-08-24T01:38:19;100230.81;;;18.69;76.55
23996;BME280;12207;50.076;8.848;2022-08-24T01:40:47;100226.41;;;18.63;77.10
23996;BME280;12207;50.076;8.848;2022-08-24T01:43:16;100231.47;;;18.59;77.21
23996;BME280;12207;50.076;8.848;2022-08-24T01:45:43;100228.88;;;18.57;77.32
23996;BME280;12207;50.076;8.848;2022-08-24T01:48:09;100233.19;;;18.57;77.25
23996;BME280;12207;50.076;8.848;2022-08-24T01:50:36;100234.91;;;18.56;77.35
23996;BME280;12207;50.076;8.848;2022-08-24T01:53:03;100242.59;;;18.53;77.95
23996;BME280;12207;50.076;8.848;2022-08-24T01:55:30;100239.94;;;18.50;78.14
23996;BME280;12207;50.076;8.848;2022-08-24T01:57:56;100239.84;;;18.47;78.25
23996;BME280;12207;50.076;8.848;2022-08-24T02:00:23;100245.75;;;18.40;78.76
23996;BME280;12207;50.076;8.848;2022-08-24T02:02:50;100248.34;;;18.40;79.24
23996;BME280;12207;50.076;8.848;2022-08-24T02:05:16;100252.63;;;18.39;78.95
23996;BME280;12207;50.076;8.848;2022-08-24T02:07:43;100254.25;;;18.33;79.54
23996;BME280;12207;50.076;8.848;2022-08-24T02:10:12;100252.47;;;18.30;79.74
23996;BME280;12207;50.076;8.848;2022-08-24T02:12:39;100255.91;;;18.31;80.34
23996;BME280;12207;50.076;8.848;2022-08-24T02:15:07;100260.94;;;18.25;80.07
23996;BME280;12207;50.076;8.848;2022-08-24T02:17:34;100254.81;;;18.19;80.70
23996;BME280;12207;50.076;8.848;2022-08-24T02:20:02;100262.63;;;18.22;80.35
23996;BME280;12207;50.076;8.848;2022-08-24T02:22:30;100258.31;;;18.21;80.53
23996;BME280;12207;50.076;8.848;2022-08-24T02:24:56;100258.97;;;18.14;80.91
23996;BME280;12207;50.076;8.848;2022-08-24T02:27:23;100266.47;;;18.02;81.69
23996;BME280;12207;50.076;8.848;2022-08-24T02:29:49;100271.50;;;17.96;82.02
23996;BME280;12207;50.076;8.848;2022-08-24T02:32:16;100265.44;;;17.94;82.37
23996;BME280;12207;50.076;8.848;2022-08-24T02:34:42;100263.75;;;17.94;82.27
23996;BME280;12207;50.076;8.848;2022-08-24T02:37:09;100263.75;;;17.94;82.31
23996;BME280;12207;50.076;8.848;2022-08-24T02:39:36;100267.06;;;17.90;82.69
23996;BME280;12207;50.076;8.848;2022-08-24T02:42:02;100261.94;;;17.92;82.34
23996;BME280;12207;50.076;8.848;2022-08-24T02:44:29;100260.97;;;17.87;82.49
23996;BME280;12207;50.076;8.848;2022-08-24T02:46:55;100255.66;;;17.79;83.28
23996;BME280;12207;50.076;8.848;2022-08-24T02:49:22;100260.75;;;17.77;83.52
23996;BME280;12207;50.076;8.848;2022-08-24T02:51:48;100263.47;;;17.84;82.80
23996;BME280;12207;50.076;8.848;2022-08-24T02:54:15;100263.56;;;17.87;82.90
23996;BME280;12207;50.076;8.848;2022-08-24T02:56:43;100265.25;;;17.85;83.29
23996;BME280;12207;50.076;8.848;2022-08-24T02:59:09;100272.94;;;17.83;83.45
23996;BME280;12207;50.076;8.848;2022-08-24T03:01:36;100269.44;;;17.80;83.84
23996;BME280;12207;50.076;8.848;2022-08-24T03:04:03;100261.78;;;17.84;83.57
23996;BME280;12207;50.076;8.848;2022-08-24T03:06:30;100269.38;;;17.78;84.21
23996;BME280;12207;50.076;8.848;2022-08-24T03:08:56;100264.09;;;17.75;84.23
23996;BME280;12207;50.076;8.848;2022-08-24T03:11:23;100268.31;;;17.70;83.78
23996;BME280;12207;50.076;8.848;2022-08-24T03:13:50;100263.94;;;17.67;83.97
23996;BME280;12207;50.076;8.848;2022-08-24T03:16:17;100270.72;;;17.64;84.14
23996;BME280;12207;50.076;8.848;2022-08-24T03:18:43;100258.66;;;17.61;84.17
23996;BME280;12207;50.076;8.848;2022-08-24T03:21:10;100254.19;;;17.56;84.99
23996;BME280;12207;50.076;8.848;2022-08-24T03:23:36;100250.69;;;17.52;85.21
23996;BME280;12207;50.076;8.848;2022-08-24T03:26:03;100255.00;;;17.53;85.09
23996;BME280;12207;50.076;8.848;2022-08-24T03:28:30;100251.78;;;17.63;84.85
23996;BME280;12207;50.076;8.848;2022-08-24T03:30:56;100251.69;;;17.59;84.97
23996;BME280;12207;50.076;8.848;2022-08-24T03:33:23;100250.91;;;17.63;85.16
23996;BME280;12207;50.076;8.848;2022-08-24T03:35:49;100248.25;;;17.60;85.31
23996;BME280;12207;50.076;8.848;2022-08-24T03:38:16;100248.31;;;17.61;85.38
23996;BME280;12207;50.076;8.848;2022-08-24T03:40:42;100251.66;;;17.57;85.78
23996;BME280;12207;50.076;8.848;2022-08-24T03:43:09;100243.81;;;17.54;85.86
23996;BME280;12207;50.076;8.848;2022-08-24T03:45:56;100248.78;;;17.45;86.27
23996;BME280;12207;50.076;8.848;2022-08-24T03:48:22;100247.84;;;17.43;86.44
23996;BME280;12207;50.076;8.848;2022-08-24T03:50:49;100245.19;;;17.38;86.57
23996;BME280;12207;50.076;8.848;2022-08-24T03:53:16;100246.81;;;17.35;87.01
23996;BME280;12207;50.076;8.848;2022-08-24T03:55:43;100250.91;;;17.26;88.01
23996;BME280;12207;50.076;8.848;2022-08-24T03:58:09;100249.03;;;17.21;88.01
23996;BME280;12207;50.076;8.848;2022-08-24T04:00:36;100253.28;;;17.19;88.55
23996;BME280;12207;50.076;8.848;2022-08-24T04:03:08;100252.41;;;17.18;88.30
23996;BME280;12207;50.076;8.848;2022-08-24T04:05:35;100254.88;;;17.14;88.76
23996;BME280;12207;50.076;8.848;2022-08-24T04:08:02;100258.28;;;17.13;88.46
23996;BME280;12207;50.076;8.848;2022-08-24T04:10:29;100255.69;;;17.11;88.48
23996;BME280;12207;50.076;8.848;2022-08-24T04:12:56;100256.47;;;17.08;88.24
23996;BME280;12207;50.076;8.848;2022-08-24T04:15:22;100261.50;;;17.04;88.63
23996;BME280;12207;50.076;8.848;2022-08-24T04:17:50;100261.38;;;16.99;88.84
23996;BME280;12207;50.076;8.848;2022-08-24T04:20:18;100265.63;;;16.97;89.30
23996;BME280;12207;50.076;8.848;2022-08-24T04:22:45;100258.59;;;16.92;89.99
23996;BME280;12207;50.076;8.848;2022-08-24T04:25:11;100263.81;;;16.93;89.79
23996;BME280;12207;50.076;8.848;2022-08-24T04:27:39;100258.59;;;16.92;90.57
23996;BME280;12207;50.076;8.848;2022-08-24T04:30:05;100261.25;;;16.95;90.45
23996;BME280;12207;50.076;8.848;2022-08-24T04:32:32;100262.25;;;17.00;90.42
23996;BME280;12207;50.076;8.848;2022-08-24T04:34:58;100265.75;;;17.02;90.37
23996;BME280;12207;50.076;8.848;2022-08-24T04:37:25;100264.97;;;17.04;89.84
23996;BME280;12207;50.076;8.848;2022-08-24T04:39:51;100272.72;;;17.06;89.60
23996;BME280;12207;50.076;8.848;2022-08-24T04:42:18;100273.69;;;17.09;89.93
23996;BME280;12207;50.076;8.848;2022-08-24T04:44:45;100277.09;;;17.08;90.04
23996;BME280;12207;50.076;8.848;2022-08-24T04:47:11;100280.59;;;17.11;89.80
23996;BME280;12207;50.076;8.848;2022-08-24T04:49:38;100274.88;;;17.22;89.60
23996;BME280;12207;50.076;8.848;2022-08-24T04:52:05;100273.28;;;17.27;89.21
23996;BME280;12207;50.076;8.848;2022-08-24T04:54:33;100276.00;;;17.32;88.73
23996;BME280;12207;50.076;8.848;2022-08-24T04:57:00;100277.78;;;17.36;88.91
23996;BME280;12207;50.076;8.848;2022-08-24T04:59:26;100282.38;;;17.46;88.34
23996;BME280;12207;50.076;8.848;2022-08-24T05:01:53;100279.97;;;17.54;87.99
23996;BME280;12207;50.076;8.848;2022-08-24T05:04:19;100287.06;;;17.63;87.58
23996;BME280;12207;50.076;8.848;2022-08-24T05:06:46;100290.03;;;17.78;87.23
23996;BME280;12207;50.076;8.848;2022-08-24T05:09:12;100291.09;;;18.26;84.87
23996;BME280;12207;50.076;8.848;2022-08-24T05:11:39;100289.63;;;18.78;81.58
23996;BME280;12207;50.076;8.848;2022-08-24T05:14:05;100288.63;;;19.18;79.70
23996;BME280;12207;50.076;8.848;2022-08-24T05:16:32;100292.69;;;19.52;77.91
23996;BME280;12207;50.076;8.848;2022-08-24T05:19:00;100284.69;;;19.92;75.70
23996;BME280;12207;50.076;8.848;2022-08-24T05:21:28;100291.13;;;20.17;74.39
23996;BME280;12207;50.076;8.848;2022-08-24T05:23:56;100283.66;;;20.43;73.13
23996;BME280;12207;50.076;8.848;2022-08-24T05:26:23;100290.31;;;20.92;72.80
23996;BME280;12207;50.076;8.848;2022-08-24T05:28:54;100294.34;;;21.48;70.25
23996;BME280;12207;50.076;8.848;2022-08-24T05:31:22;100299.88;;;21.93;68.59
23996;BME280;12207;50.076;8.848;2022-08-24T05:33:49;100291.44;;;22.27;66.40
23996;BME280;12207;50.076;8.848;2022-08-24T05:38:42;100296.06;;;22.97;63.46
23996;BME280;12207;50.076;8.848;2022-08-24T05:41:09;100294.38;;;23.24;63.59
23996;BME280;12207;50.076;8.848;2022-08-24T05:43:35;100291.78;;;23.59;62.00
23996;BME280;12207;50.076;8.848;2022-08-24T05:46:02;100295.25;;;23.94;60.41
23996;BME280;12207;50.076;8.848;2022-08-24T05:48:28;100300.44;;;24.14;60.08
23996;BME280;12207;50.076;8.848;2022-08-24T05:50:55;100302.81;;;24.79;57.95
23996;BME280;12207;50.076;8.848;2022-08-24T05:53:22;100308.63;;;25.29;56.92
23996;BME280;12207;50.076;8.848;2022-08-24T05:55:49;100310.34;;;25.30;56.35
23996;BME280;12207;50.076;8.848;2022-08-24T05:58:15;100318.88;;;25.57;56.46
23996;BME280;12207;50.076;8.848;2022-08-24T06:00:42;100312.69;;;25.65;54.55
23996;BME280;12207;50.076;8.848;2022-08-24T06:03:14;100313.06;;;25.13;57.14
23996;BME280;12207;50.076;8.848;2022-08-24T06:05:41;100309.72;;;24.91;57.45
23996;BME280;12207;50.076;8.848;2022-08-24T06:08:08;100311.53;;;24.77;58.11
23996;BME280;12207;50.076;8.848;2022-08-24T06:10:38;100313.16;;;24.96;58.56
23996;BME280;12207;50.076;8.848;2022-08-24T06:13:05;100319.44;;;24.55;58.68
23996;BME280;12207;50.076;8.848;2022-08-24T06:15:32;100321.91;;;24.86;58.17
23996;BME280;12207;50.076;8.848;2022-08-24T06:18:00;100319.19;;;25.11;58.42
23996;BME280;12207;50.076;8.848;2022-08-24T06:20:27;100308.84;;;24.89;57.91
23996;BME280;12207;50.076;8.848;2022-08-24T06:22:53;100326.34;;;24.75;58.12
23996;BME280;12207;50.076;8.848;2022-08-24T06:25:20;100322.06;;;24.52;59.56
23996;BME280;12207;50.076;8.848;2022-08-24T06:28:05;100318.31;;;25.07;58.00
23996;BME280;12207;50.076;8.848;2022-08-24T06:30:32;100324.66;;;24.59;59.93
23996;BME280;12207;50.076;8.848;2022-08-24T06:32:59;100323.66;;;24.86;59.83
23996;BME280;12207;50.076;8.848;2022-08-24T06:35:26;100319.22;;;25.01;59.03
23996;BME280;12207;50.076;8.848;2022-08-24T06:37:52;100314.31;;;24.17;60.45
23996;BME280;12207;50.076;8.848;2022-08-24T06:40:19;100321.22;;;24.38;59.82
23996;BME280;12207;50.076;8.848;2022-08-24T06:42:45;100319.56;;;24.16;60.52
23996;BME280;12207;50.076;8.848;2022-08-24T06:45:12;100319.56;;;23.97;61.67
23996;BME280;12207;50.076;8.848;2022-08-24T06:47:39;100318.75;;;23.83;62.13
23996;BME280;12207;50.076;8.848;2022-08-24T06:50:06;100321.28;;;24.21;62.27
23996;BME280;12207;50.076;8.848;2022-08-24T06:52:34;100318.59;;;24.38;60.60
23996;BME280;12207;50.076;8.848;2022-08-24T06:55:01;100315.22;;;24.16;61.06
23996;BME280;12207;50.076;8.848;2022-08-24T06:57:27;100318.72;;;23.98;61.55
23996;BME280;12207;50.076;8.848;2022-08-24T06:59:56;100316.06;;;24.15;61.28
23996;BME280;12207;50.076;8.848;2022-08-24T07:02:23;100322.09;;;24.45;61.08
23996;BME280;12207;50.076;8.848;2022-08-24T07:04:49;100325.47;;;24.68;60.32
23996;BME280;12207;50.076;8.848;2022-08-24T07:07:16;100323.66;;;24.86;59.57
23996;BME280;12207;50.076;8.848;2022-08-24T07:09:43;100324.56;;;24.82;59.28
23996;BME280;12207;50.076;8.848;2022-08-24T07:12:09;100328.66;;;25.30;59.32
23996;BME280;12207;50.076;8.848;2022-08-24T07:14:36;100329.53;;;25.29;57.94
23996;BME280;12207;50.076;8.848;2022-08-24T07:17:02;100326.13;;;25.16;58.73
23996;BME280;12207;50.076;8.848;2022-08-24T07:19:29;100328.59;;;25.41;57.60
23996;BME280;12207;50.076;8.848;2022-08-24T07:21:56;100325.84;;;25.55;57.13
23996;BME280;12207;50.076;8.848;2022-08-24T07:24:23;100329.06;;;25.87;58.30
23996;BME280;12207;50.076;8.848;2022-08-24T07:26:50;100330.56;;;26.16;55.81
23996;BME280;12207;50.076;8.848;2022-08-24T07:29:16;100327.00;;;26.20;55.70
23996;BME280;12207;50.076;8.848;2022-08-24T07:31:44;100334.84;;;26.22;55.17
23996;BME280;12207;50.076;8.848;2022-08-24T07:34:11;100336.53;;;26.26;55.39
23996;BME280;12207;50.076;8.848;2022-08-24T07:36:38;100332.81;;;26.47;54.78
23996;BME280;12207;50.076;8.848;2022-08-24T07:39:06;100338.00;;;26.53;54.42
23996;BME280;12207;50.076;8.848;2022-08-24T07:41:36;100333.47;;;26.67;53.69
23996;BME280;12207;50.076;8.848;2022-08-24T07:44:02;100338.41;;;26.90;53.31
23996;BME280;12207;50.076;8.848;2022-08-24T07:46:29;100341.53;;;26.49;53.36
23996;BME280;12207;50.076;8.848;2022-08-24T07:48:56;100339.91;;;26.37;53.51
23996;BME280;12207;50.076;8.848;2022-08-24T07:51:22;100331.44;;;26.91;53.04
23996;BME280;12207;50.076;8.848;2022-08-24T07:53:49;100338.97;;;27.14;52.14
23996;BME280;12207;50.076;8.848;2022-08-24T07:56:15;100339.44;;;27.42;51.54
23996;BME280;12207;50.076;8.848;2022-08-24T07:58:42;100336.91;;;27.36;51.38
23996;BME280;12207;50.076;8.848;2022-08-24T08:01:09;100344.97;;;27.23;51.53
23996;BME280;12207;50.076;8.848;2022-08-24T08:03:35;100337.75;;;27.38;51.93
23996;BME280;12207;50.076;8.848;2022-08-24T08:06:03;100346.81;;;27.15;51.20
23996;BME280;12207;50.076;8.848;2022-08-24T08:08:30;100345.22;;;27.03;51.09
23996;BME280;12207;50.076;8.848;2022-08-24T08:10:59;100350.31;;;27.14;52.36
23996;BME280;12207;50.076;8.848;2022-08-24T08:13:28;100347.59;;;27.23;50.78
23996;BME280;12207;50.076;8.848;2022-08-24T08:15:56;100346.72;;;27.21;51.27
23996;BME280;12207;50.076;8.848;2022-08-24T08:18:23;100347.63;;;27.20;50.67
23996;BME280;12207;50.076;8.848;2022-08-24T08:20:50;100355.66;;;27.07;52.53
23996;BME280;12207;50.076;8.848;2022-08-24T08:23:16;100354.09;;;27.54;50.79
23996;BME280;12207;50.076;8.848;2022-08-24T08:26:02;100346.75;;;27.79;50.24
23996;BME280;12207;50.076;8.848;2022-08-24T08:28:29;100354.41;;;27.91;50.64
23996;BME280;12207;50.076;8.848;2022-08-24T08:30:59;100359.31;;;28.09;48.18
23996;BME280;12207;50.076;8.848;2022-08-24T08:33:26;100352.00;;;28.27;48.65
23996;BME280;12207;50.076;8.848;2022-08-24T08:35:55;100350.97;;;28.34;48.86
23996;BME280;12207;50.076;8.848;2022-08-24T08:38:26;100352.78;;;28.32;48.42
23996;BME280;12207;50.076;8.848;2022-08-24T08:41:12;100356.81;;;28.51;48.12
23996;BME280;12207;50.076;8.848;2022-08-24T08:43:53;100364.81;;;28.44;48.51
23996;BME280;12207;50.076;8.848;2022-08-24T08:54:28;100353.50;;;29.24;46.32
23996;BME280;12207;50.076;8.848;2022-08-24T09:02:33;100351.22;;;29.08;46.48
23996;BME280;12207;50.076;8.848;2022-08-24T09:07:42;100351.16;;;29.12;46.18
23996;BME280;12207;50.076;8.848;2022-08-24T09:20:49;100351.88;;;29.57;44.84
23996;BME280;12207;50.076;8.848;2022-08-24T09:23:29;100341.22;;;28.85;46.83
23996;BME280;12207;50.076;8.848;2022-08-24T09:26:02;100342.50;;;29.08;46.50
23996;BME280;12207;50.076;8.848;2022-08-24T09:31:09;100340.91;;;29.38;45.70
23996;BME280;12207;50.076;8.848;2022-08-24T09:33:51;100346.38;;;29.29;45.40
23996;BME280;12207;50.076;8.848;2022-08-24T09:36:27;100341.78;;;29.74;44.62
23996;BME280;12207;50.076;8.848;2022-08-24T09:49:04;100346.06;;;30.13;42.67
23996;BME280;12207;50.076;8.848;2022-08-24T09:52:03;100354.69;;;30.18;42.78
23996;BME280;12207;50.076;8.848;2022-08-24T10:02:19;100350.94;;;31.47;40.45
23996;BME280;12207;50.076;8.848;2022-08-24T10:05:02;100344.97;;;30.84;41.27
23996;BME280;12207;50.076;8.848;2022-08-24T10:15:30;100330.72;;;31.19;39.76
23996;BME280;12207;50.076;8.848;2022-08-24T10:18:12;100321.47;;;31.61;38.63
23996;BME280;12207;50.076;8.848;2022-08-24T10:26:10;100315.94;;;31.95;37.07
23996;BME280;12207;50.076;8.848;2022-08-24T10:28:50;100320.03;;;30.96;38.26
23996;BME280;12207;50.076;8.848;2022-08-24T10:31:26;100320.00;;;30.66;37.79
23996;BME280;12207;50.076;8.848;2022-08-24T10:36:30;100312.00;;;30.99;38.19
23996;BME280;12207;50.076;8.848;2022-08-24T10:39:09;100317.44;;;30.94;37.75
23996;BME280;12207;50.076;8.848;2022-08-24T10:44:34;100320.94;;;31.51;36.93
23996;BME280;12207;50.076;8.848;2022-08-24T10:47:10;100315.16;;;31.40;37.35
23996;BME280;12207;50.076;8.848;2022-08-24T10:49:48;100311.22;;;31.78;36.54
23996;BME280;12207;50.076;8.848;2022-08-24T10:57:49;100312.56;;;32.15;36.08
23996;BME280;12207;50.076;8.848;2022-08-24T11:00:20;100311.09;;;32.08;35.80
23996;BME280;12207;50.076;8.848;2022-08-24T11:03:03;100309.28;;;31.30;37.53
23996;BME280;12207;50.076;8.848;2022-08-24T11:05:34;100304.78;;;31.60;37.16
23996;BME280;12207;50.076;8.848;2022-08-24T11:08:03;100311.34;;;31.73;36.84
23996;BME280;12207;50.076;8.848;2022-08-24T11:10:31;100306.91;;;31.75;36.71
23996;BME280;12207;50.076;8.848;2022-08-24T11:15:48;100299.03;;;31.21;37.40
23996;BME280;12207;50.076;8.848;2022-08-24T11:18:16;100299.59;;;31.30;37.35
23996;BME280;12207;50.076;8.848;2022-08-24T11:20:43;100297.59;;;31.65;36.66
23996;BME280;12207;50.076;8.848;2022-08-24T11:23:22;100296.59;;;31.94;36.47
23996;BME280;12207;50.076;8.848;2022-08-24T11:25:54;100297.69;;;31.87;36.85
23996;BME280;12207;50.076;8.848;2022-08-24T11:28:24;100297.69;;;31.62;37.14
23996;BME280;12207;50.076;8.848;2022-08-24T11:30:54;100289.56;;;31.15;37.38
23996;BME280;12207;50.076;8.848;2022-08-24T11:33:31;100286.81;;;31.18;36.30
23996;BME280;12207;50.076;8.848;2022-08-24T11:35:58;100289.97;;;31.56;36.36
23996;BME280;12207;50.076;8.848;2022-08-24T11:38:27;100282.63;;;31.66;35.32
23996;BME280;12207;50.076;8.848;2022-08-24T11:51:06;100281.53;;;32.21;34.69
23996;BME280;12207;50.076;8.848;2022-08-24T11:53:57;100278.34;;;32.37;34.50
23996;BME280;12207;50.076;8.848;2022-08-24T12:01:33;100269.91;;;32.51;34.54
23996;BME280;12207;50.076;8.848;2022-08-24T12:04:19;100266.94;;;32.82;33.66
23996;BME280;12207;50.076;8.848;2022-08-24T12:06:54;100266.34;;;32.28;33.43
23996;BME280;12207;50.076;8.848;2022-08-24T12:09:34;100262.63;;;31.84;34.66
23996;BME280;12207;50.076;8.848;2022-08-24T12:12:12;100262.47;;;31.88;34.60
23996;BME280;12207;50.076;8.848;2022-08-24T12:19:47;100263.63;;;33.21;32.69
23996;BME280;12207;50.076;8.848;2022-08-24T12:22:15;100254.97;;;33.60;33.00
23996;BME280;12207;50.076;8.848;2022-08-24T12:24:47;100256.75;;;33.79;31.96
23996;BME280;12207;50.076;8.848;2022-08-24T12:32:09;100250.06;;;33.28;31.94
23996;BME280;12207;50.076;8.848;2022-08-24T12:39:41;100243.91;;;33.28;31.18
23996;BME280;12207;50.076;8.848;2022-08-24T12:45:16;100242.50;;;33.19;30.58
23996;BME280;12207;50.076;8.848;2022-08-24T12:47:39;100239.31;;;32.43;31.78
23996;BME280;12207;50.076;8.848;2022-08-24T12:50:15;100232.28;;;32.20;32.01
23996;BME280;12207;50.076;8.848;2022-08-24T12:52:53;100243.56;;;32.71;31.73
23996;BME280;12207;50.076;8.848;2022-08-24T13:00:55;100235.09;;;32.85;29.83
23996;BME280;12207;50.076;8.848;2022-08-24T13:03:23;100224.88;;;32.76;29.63
23996;BME280;12207;50.076;8.848;2022-08-24T13:05:52;100233.19;;;33.10;29.57
23996;BME280;12207;50.076;8.848;2022-08-24T13:08:30;100225.78;;;32.75;29.34
23996;BME280;12207;50.076;8.848;2022-08-24T13:10:59;100217.13;;;33.15;29.71
23996;BME280;12207;50.076;8.848;2022-08-24T13:13:43;100231.25;;;32.92;29.34
23996;BME280;12207;50.076;8.848;2022-08-24T13:16:10;100216.03;;;32.77;30.19
23996;BME280;12207;50.076;8.848;2022-08-24T13:21:34;100216.16;;;32.74;30.01
23996;BME280;12207;50.076;8.848;2022-08-24T13:24:38;100211.16;;;32.20;30.51
23996;BME280;12207;50.076;8.848;2022-08-24T13:26:45;100206.19;;;32.35;30.66
23996;BME280;12207;50.076;8.848;2022-08-24T13:29:13;100198.41;;;32.32;30.85
23996;BME280;12207;50.076;8.848;2022-08-24T13:31:43;100207.88;;;32.37;31.14
23996;BME280;12207;50.076;8.848;2022-08-24T13:39:25;100191.44;;;32.75;30.54
23996;BME280;12207;50.076;8.848;2022-08-24T13:42:05;100187.44;;;33.08;30.88
23996;BME280;12207;50.076;8.848;2022-08-24T13:47:46;100194.69;;;32.59;30.27
23996;BME280;12207;50.076;8.848;2022-08-24T13:55:49;100202.72;;;31.86;31.05
23996;BME280;12207;50.076;8.848;2022-08-24T14:03:52;100187.38;;;31.48;31.68
23996;BME280;12207;50.076;8.848;2022-08-24T14:06:32;100186.09;;;31.59;31.81
23996;BME280;12207;50.076;8.848;2022-08-24T14:14:10;100180.34;;;32.43;30.55
23996;BME280;12207;50.076;8.848;2022-08-24T14:16:49;100185.09;;;32.57;30.40
23996;BME280;12207;50.076;8.848;2022-08-24T14:24:39;100174.50;;;32.58;30.66
23996;BME280;12207;50.076;8.848;2022-08-24T14:27:09;100170.03;;;32.81;30.31
23996;BME280;12207;50.076;8.848;2022-08-24T14:29:38;100170.78;;;33.06;30.17
23996;BME280;12207;50.076;8.848;2022-08-24T14:40:43;100166.09;;;33.54;29.31
23996;BME280;12207;50.076;8.848;2022-08-24T14:45:05;100166.56;;;33.23;29.34
23996;BME280;12207;50.076;8.848;2022-08-24T14:52:51;100151.75;;;32.76;29.78
23996;BME280;12207;50.076;8.848;2022-08-24T14:55:33;100152.72;;;33.16;29.84
23996;BME280;12207;50.076;8.848;2022-08-24T15:08:47;100149.72;;;32.61;30.73
23996;BME280;12207;50.076;8.848;2022-08-24T15:11:14;100142.94;;;32.76;30.36
23996;BME280;12207;50.076;8.848;2022-08-24T15:13:44;100142.81;;;32.79;30.11
23996;BME280;12207;50.076;8.848;2022-08-24T15:16:17;100138.31;;;33.03;30.19
23996;BME280;12207;50.076;8.848;2022-08-24T15:19:02;100148.03;;;32.80;30.52
23996;BME280;12207;50.076;8.848;2022-08-24T15:24:30;100132.59;;;32.26;31.59
23996;BME280;12207;50.076;8.848;2022-08-24T15:29:56;100130.84;;;32.70;31.44
23996;BME280;12207;50.076;8.848;2022-08-24T15:32:25;100121.19;;;32.69;30.97
23996;BME280;12207;50.076;8.848;2022-08-24T15:34:53;100116.06;;;32.86;30.05
23996;BME280;12207;50.076;8.848;2022-08-24T15:37:28;100118.31;;;32.53;30.58
23996;BME280;12207;50.076;8.848;2022-08-24T15:39:55;100120.97;;;32.53;30.80
23996;BME280;12207;50.076;8.848;2022-08-24T15:42:22;100122.91;;;32.70;30.61
23996;BME280;12207;50.076;8.848;2022-08-24T15:44:49;100116.78;;;32.48;30.72
23996;BME280;12207;50.076;8.848;2022-08-24T15:47:26;100121.69;;;32.57;30.82
23996;BME280;12207;50.076;8.848;2022-08-24T15:50:05;100119.50;;;32.46;30.57
23996;BME280;12207;50.076;8.848;2022-08-24T15:55:05;100118.16;;;32.12;31.69
23996;BME280;12207;50.076;8.848;2022-08-24T15:57:36;100125.28;;;32.10;31.85
23996;BME280;12207;50.076;8.848;2022-08-24T16:02:33;100123.16;;;31.73;31.96
23996;BME280;12207;50.076;8.848;2022-08-24T16:15:46;100121.78;;;31.38;32.26
23996;BME280;12207;50.076;8.848;2022-08-24T16:18:14;100117.00;;;31.24;32.51